createdAt,value
2018-06-05T00:01:47.779Z,67.10
2018-06-05T00:04:16.010Z,67.00
2018-06-05T00:06:44.313Z,67.20
2018-06-05T00:09:12.462Z,67.50
2018-06-05T00:11:40.936Z,67.80
2018-06-05T00:14:09.145Z,68.20
2018-06-05T00:16:37.402Z,68.50
2018-06-05T00:19:05.829Z,68.30
2018-06-05T00:21:33.977Z,68.60
2018-06-05T00:24:02.216Z,68.60
2018-06-05T00:26:30.489Z,69.30
2018-06-05T00:28:58.660Z,68.70
2018-06-05T00:31:26.941Z,69.00
2018-06-05T00:33:55.191Z,69.40
2018-06-05T00:36:23.340Z,69.70
2018-06-05T00:38:51.826Z,69.60
2018-06-05T00:41:19.978Z,69.50
2018-06-05T00:43:48.156Z,69.60
2018-06-05T00:46:16.386Z,69.70
2018-06-05T00:48:44.712Z,69.80
2018-06-05T00:51:24.373Z,70.20
2018-06-05T00:53:52.612Z,70.30
2018-06-05T00:56:20.899Z,70.50
2018-06-05T00:58:49.095Z,70.60
2018-06-05T01:01:17.266Z,70.90
2018-06-05T01:03:45.485Z,70.90
2018-06-05T01:06:13.905Z,71.10
2018-06-05T01:08:42.164Z,71.40
2018-06-05T01:11:10.506Z,71.40
2018-06-05T01:13:39.011Z,71.30
2018-06-05T01:16:07.172Z,71.30
2018-06-05T01:18:35.326Z,71.30
2018-06-05T01:21:03.547Z,71.40
2018-06-05T01:23:32.077Z,71.80
2018-06-05T01:26:00.280Z,73.10
2018-06-05T01:28:28.481Z,72.60
2018-06-05T01:30:56.690Z,73.10
2018-06-05T01:33:25.003Z,73.20
2018-06-05T01:35:53.261Z,73.10
2018-06-05T01:38:21.405Z,72.70
2018-06-05T01:40:49.605Z,73.40
2018-06-05T01:43:17.764Z,72.70
2018-06-05T01:45:46.024Z,72.50
2018-06-05T01:48:14.317Z,72.50
2018-06-05T01:50:43.346Z,72.40
2018-06-05T01:53:11.487Z,72.50
2018-06-05T01:55:39.877Z,72.50
2018-06-05T01:58:08.065Z,72.60
2018-06-05T02:00:36.282Z,72.80
2018-06-05T02:03:04.594Z,73.10
2018-06-05T02:05:32.724Z,72.90
2018-06-05T02:08:01.025Z,73.20
2018-06-05T02:10:29.405Z,73.10
2018-06-05T02:12:57.619Z,73.10
2018-06-05T02:15:25.816Z,73.20
2018-06-05T02:17:53.994Z,73.50
2018-06-05T02:20:22.170Z,73.10
2018-06-05T02:22:50.374Z,73.80
2018-06-05T02:25:18.511Z,73.40
2018-06-05T02:27:46.666Z,73.40
2018-06-05T02:30:14.862Z,73.40
2018-06-05T02:32:43.054Z,73.30
2018-06-05T02:35:11.268Z,73.10
2018-06-05T02:37:39.481Z,73.00
2018-06-05T02:40:07.797Z,73.10
2018-06-05T02:42:36.203Z,73.20
2018-06-05T02:45:04.425Z,73.20
2018-06-05T02:47:32.617Z,73.30
2018-06-05T02:50:01.624Z,73.40
2018-06-05T02:52:29.768Z,73.00
2018-06-05T02:54:57.898Z,73.10
2018-06-05T02:57:26.112Z,73.10
2018-06-05T02:59:54.389Z,73.80
2018-06-05T03:02:22.604Z,73.20
2018-06-05T03:04:50.797Z,73.20
2018-06-05T03:07:19.115Z,73.20
2018-06-05T03:09:47.283Z,72.70
2018-06-05T03:12:15.575Z,72.80
2018-06-05T03:14:43.764Z,72.80
2018-06-05T03:17:11.984Z,73.50
2018-06-05T03:19:40.159Z,72.80
2018-06-05T03:22:08.390Z,72.90
2018-06-05T03:27:04.684Z,72.70
2018-06-05T03:29:32.926Z,72.70
2018-06-05T03:32:01.031Z,72.60
2018-06-05T03:36:57.401Z,72.50
2018-06-05T03:42:08.526Z,72.60
2018-06-05T03:44:36.739Z,72.40
2018-06-05T03:47:04.977Z,72.30
2018-06-05T03:49:38.519Z,72.20
2018-06-05T03:52:06.702Z,72.30
2018-06-05T03:54:34.991Z,73.10
2018-06-05T03:57:03.639Z,71.90
2018-06-05T03:59:31.844Z,72.50
2018-06-05T04:02:00.177Z,71.80
2018-06-05T04:04:28.384Z,72.70
2018-06-05T04:06:56.554Z,71.70
2018-06-05T04:09:24.869Z,72.70
2018-06-05T04:11:53.143Z,71.90
2018-06-05T04:14:21.276Z,71.50
2018-06-05T04:16:51.575Z,71.30
2018-06-05T04:19:19.774Z,71.90
2018-06-05T04:21:47.899Z,71.30
2018-06-05T04:24:16.102Z,70.90
2018-06-05T04:26:44.239Z,70.30
2018-06-05T04:29:12.593Z,70.60
2018-06-05T04:31:40.935Z,70.50
2018-06-05T04:34:09.323Z,70.20
2018-06-05T04:36:37.450Z,70.10
2018-06-05T04:39:07.158Z,70.00
2018-06-05T04:41:35.357Z,69.90
2018-06-05T04:44:03.524Z,69.80
2018-06-05T04:46:31.680Z,69.50
2018-06-05T04:48:59.797Z,70.40
2018-06-05T04:51:27.961Z,70.10
2018-06-05T04:53:56.199Z,69.80
2018-06-05T04:56:24.408Z,69.70
2018-06-05T04:58:52.633Z,69.40
2018-06-05T05:01:21.156Z,68.70
2018-06-05T05:03:49.291Z,67.60
2018-06-05T05:06:17.472Z,68.70
2018-06-05T05:08:45.626Z,69.20
2018-06-05T05:11:13.795Z,69.80
2018-06-05T05:13:41.939Z,67.00
2018-06-05T05:16:10.211Z,66.80
2018-06-05T05:18:38.536Z,66.10
2018-06-05T05:21:06.640Z,66.30
2018-06-05T05:23:34.898Z,66.40
2018-06-05T05:26:03.278Z,66.50
2018-06-05T05:28:31.528Z,65.90
2018-06-05T05:30:59.636Z,66.00
2018-06-05T05:33:27.888Z,65.70
2018-06-05T05:35:56.248Z,65.40
2018-06-05T05:38:24.380Z,65.90
2018-06-05T05:40:52.526Z,65.80
2018-06-05T05:43:20.712Z,66.90
2018-06-05T05:45:48.860Z,65.60
2018-06-05T05:48:17.004Z,65.40
2018-06-05T05:50:45.101Z,63.20
2018-06-05T05:53:13.222Z,62.40
2018-06-05T05:55:41.397Z,59.90
2018-06-05T05:58:09.649Z,59.00
2018-06-05T06:00:37.871Z,59.40
2018-06-05T06:03:06.065Z,59.10
2018-06-05T06:05:34.252Z,59.90
2018-06-05T06:08:02.458Z,59.70
2018-06-05T06:10:30.766Z,58.80
2018-06-05T06:12:58.914Z,58.70
2018-06-05T06:15:27.178Z,59.90
2018-06-05T06:17:55.352Z,59.10
2018-06-05T06:20:23.486Z,59.80
2018-06-05T06:22:51.647Z,59.30
2018-06-05T06:25:19.804Z,58.90
2018-06-05T06:27:47.912Z,58.80
2018-06-05T06:30:16.200Z,58.70
2018-06-05T06:32:44.359Z,58.00
2018-06-05T06:35:12.558Z,57.60
2018-06-05T06:37:40.674Z,57.90
2018-06-05T06:40:08.884Z,57.90
2018-06-05T06:42:37.176Z,57.60
2018-06-05T06:45:05.514Z,58.30
2018-06-05T06:47:33.786Z,58.60
2018-06-05T06:50:02.091Z,58.60
2018-06-05T06:52:30.386Z,57.90
2018-06-05T06:54:58.777Z,58.20
2018-06-05T06:57:27.016Z,58.50
2018-06-05T07:02:23.442Z,59.60
2018-06-05T07:04:51.675Z,59.80
2018-06-05T07:07:20.030Z,60.10
2018-06-05T07:09:48.289Z,60.20
2018-06-05T07:12:16.464Z,60.50
2018-06-05T07:14:44.852Z,59.60
2018-06-05T07:17:13.028Z,59.00
2018-06-05T07:19:41.234Z,59.80
2018-06-05T07:22:09.465Z,59.40
2018-06-05T07:24:37.725Z,59.20
2018-06-05T07:27:06.067Z,58.80
2018-06-05T07:29:34.261Z,59.10
2018-06-05T07:32:02.516Z,59.20
2018-06-05T07:34:30.677Z,59.10
2018-06-05T07:36:58.986Z,59.10
2018-06-05T07:39:27.154Z,58.70
2018-06-05T07:41:55.566Z,57.90
2018-06-05T07:44:23.734Z,57.40
2018-06-05T07:46:52.029Z,57.70
2018-06-05T07:49:20.183Z,57.70
2018-06-05T07:51:48.358Z,56.60
2018-06-05T07:54:16.532Z,57.30
2018-06-05T07:56:45.397Z,57.50
2018-06-05T07:59:13.592Z,57.70
2018-06-05T08:01:41.950Z,57.40
2018-06-05T08:04:10.180Z,57.30
2018-06-05T08:06:38.544Z,57.40
2018-06-05T08:09:08.657Z,57.00
2018-06-05T08:11:37.158Z,56.40
2018-06-05T08:14:05.558Z,56.20
2018-06-05T08:16:33.790Z,56.80
2018-06-05T08:19:02.111Z,56.90
2018-06-05T08:21:30.380Z,56.50
2018-06-05T08:23:58.592Z,56.90
2018-06-05T08:26:48.959Z,57.20
2018-06-05T08:29:18.109Z,57.30
2018-06-05T08:31:46.295Z,57.00
2018-06-05T08:34:14.699Z,56.80
2018-06-05T08:36:43.055Z,57.30
2018-06-05T08:39:11.435Z,57.10
2018-06-05T08:41:39.598Z,57.20
2018-06-05T08:44:07.807Z,57.20
2018-06-05T08:49:03.965Z,57.70
2018-06-05T08:54:00.525Z,58.20
2018-06-05T08:56:28.920Z,58.50
2018-06-05T09:01:25.134Z,58.30
2018-06-05T09:03:53.255Z,58.10
2018-06-05T09:06:21.450Z,58.40
2018-06-05T09:08:49.581Z,58.20
2018-06-05T09:11:17.810Z,58.30
2018-06-05T09:13:46.069Z,58.30
2018-06-05T09:16:14.704Z,58.50
2018-06-05T09:18:42.892Z,58.40
2018-06-05T09:21:11.102Z,59.10
2018-06-05T09:23:39.216Z,58.50
2018-06-05T09:26:07.420Z,58.60
2018-06-05T09:28:35.585Z,58.60
2018-06-05T09:33:34.254Z,58.80
2018-06-05T09:36:02.437Z,58.60
2018-06-05T09:38:30.989Z,58.70
2018-06-05T09:40:59.240Z,58.50
2018-06-05T09:43:27.630Z,58.80
2018-06-05T09:45:55.928Z,58.50
2018-06-05T09:48:24.110Z,58.60
2018-06-05T09:50:52.276Z,58.40
2018-06-05T09:53:20.654Z,58.60
2018-06-05T09:55:48.809Z,58.30
2018-06-05T09:58:17.191Z,58.50
2018-06-05T10:00:51.310Z,58.40
2018-06-05T10:05:48.164Z,57.70
2018-06-05T10:08:16.415Z,57.90
2018-06-05T10:10:44.563Z,57.90
2018-06-05T10:13:12.871Z,57.60
2018-06-05T10:15:41.063Z,57.60
2018-06-05T10:18:09.288Z,56.90
2018-06-05T10:20:37.535Z,57.00
2018-06-05T10:23:06.402Z,56.80
2018-06-05T10:25:34.546Z,56.80
2018-06-05T10:28:02.894Z,56.80
2018-06-05T10:30:31.066Z,56.10
2018-06-05T10:32:59.297Z,56.10
2018-06-05T10:35:27.673Z,55.40
2018-06-05T10:37:55.953Z,55.40
2018-06-05T10:40:24.242Z,55.50
2018-06-05T10:42:52.482Z,55.70
2018-06-05T10:45:20.591Z,55.80
2018-06-05T10:47:48.825Z,55.40
2018-06-05T10:50:17.027Z,55.40
2018-06-05T10:52:45.216Z,55.10
2018-06-05T10:55:13.448Z,55.20
2018-06-05T10:57:41.663Z,55.00
2018-06-05T11:00:10.044Z,55.30
2018-06-05T11:02:38.284Z,55.10
2018-06-05T11:05:06.424Z,55.10
2018-06-05T11:07:35.073Z,55.20
2018-06-05T11:10:03.361Z,55.30
2018-06-05T11:12:31.814Z,55.30
2018-06-05T11:15:00.044Z,55.60
2018-06-05T11:17:28.195Z,55.60
2018-06-05T11:19:56.399Z,56.00
2018-06-05T11:22:24.558Z,56.10
2018-06-05T11:24:52.760Z,56.10
2018-06-05T11:27:21.157Z,56.00
2018-06-05T11:29:49.616Z,56.10
2018-06-05T11:32:17.748Z,56.00
2018-06-05T11:34:46.021Z,55.80
2018-06-05T11:37:14.202Z,56.20
2018-06-05T11:39:42.468Z,55.60
2018-06-05T11:42:10.688Z,55.40
2018-06-05T11:44:38.811Z,55.70
2018-06-05T11:47:07.032Z,55.80
2018-06-05T11:49:35.416Z,55.40
2018-06-05T11:52:03.635Z,55.50
2018-06-05T11:54:31.884Z,55.60
2018-06-05T11:57:00.783Z,55.80
2018-06-05T11:59:28.928Z,55.70
2018-06-05T12:01:57.167Z,54.50
2018-06-05T12:04:25.383Z,53.40
2018-06-05T12:06:53.615Z,52.90
2018-06-05T12:09:22.327Z,51.70
2018-06-05T12:11:50.538Z,50.80
2018-06-05T12:14:18.761Z,51.00
2018-06-05T12:16:46.987Z,49.60
2018-06-05T12:19:15.256Z,50.00
2018-06-05T12:21:43.396Z,49.60
2018-06-05T12:24:11.751Z,50.60
2018-06-05T12:26:39.966Z,50.10
2018-06-05T12:29:08.135Z,48.30
2018-06-05T12:31:36.336Z,48.10
2018-06-05T12:34:04.522Z,47.30
2018-06-05T12:36:32.996Z,46.90
2018-06-05T12:39:01.223Z,47.00
2018-06-05T12:41:29.415Z,46.50
2018-06-05T12:43:59.569Z,45.80
2018-06-05T12:48:56.045Z,44.70
2018-06-05T12:51:24.299Z,44.60
2018-06-05T12:53:52.596Z,44.10
2018-06-05T12:56:20.829Z,44.40
2018-06-05T13:01:19.208Z,43.60
2018-06-05T13:03:48.695Z,43.40
2018-06-05T13:06:16.815Z,42.90
2018-06-05T13:08:45.151Z,42.40
2018-06-05T13:11:14.019Z,42.40
2018-06-05T13:13:42.467Z,42.30
2018-06-05T13:16:10.730Z,41.80
2018-06-05T13:18:38.921Z,42.00
2018-06-05T13:21:07.377Z,41.40
2018-06-05T13:23:35.908Z,40.80
2018-06-05T13:26:04.211Z,41.00
2018-06-05T13:28:32.764Z,41.00
2018-06-05T13:31:00.976Z,41.30
2018-06-05T13:33:29.126Z,40.70
2018-06-05T13:35:58.449Z,41.00
2018-06-05T13:38:26.796Z,41.40
2018-06-05T13:40:54.929Z,41.20
2018-06-05T13:43:23.631Z,40.70
2018-06-05T13:45:52.622Z,40.80
2018-06-05T13:48:20.807Z,40.70
2018-06-05T13:50:49.049Z,40.90
2018-06-05T13:53:17.325Z,40.10
2018-06-05T13:55:45.570Z,39.70
2018-06-05T13:58:13.692Z,38.90
2018-06-05T14:00:42.840Z,38.80
2018-06-05T14:03:11.527Z,39.10
2018-06-05T14:05:40.429Z,39.00
2018-06-05T14:08:08.854Z,40.00
2018-06-05T14:10:37.095Z,40.60
2018-06-05T14:13:05.451Z,40.10
2018-06-05T14:15:33.753Z,40.80
2018-06-05T14:18:01.904Z,41.40
2018-06-05T14:20:30.336Z,41.80
2018-06-05T14:22:58.525Z,41.40
2018-06-05T14:25:26.686Z,41.30
2018-06-05T14:27:55.508Z,41.40
2018-06-05T14:30:23.762Z,41.20
2018-06-05T14:32:51.881Z,41.80
2018-06-05T14:36:23.410Z,42.00
2018-06-05T14:38:51.656Z,42.00
2018-06-05T14:41:19.889Z,42.40
2018-06-05T14:43:48.153Z,42.50
2018-06-05T14:46:16.398Z,42.50
2018-06-05T14:48:44.611Z,42.30
2018-06-05T14:51:12.788Z,42.10
2018-06-05T14:53:41.264Z,42.50
2018-06-05T14:56:09.523Z,42.00
2018-06-05T14:58:37.754Z,42.20
2018-06-05T15:01:06.043Z,42.20
2018-06-05T15:03:34.341Z,42.80
2018-06-05T15:06:02.574Z,43.30
2018-06-05T15:08:30.790Z,43.40
2018-06-05T15:11:00.345Z,43.20
2018-06-05T15:13:28.700Z,43.20
2018-06-05T15:15:57.093Z,43.10
2018-06-05T15:18:25.328Z,43.20
2018-06-05T15:20:53.490Z,43.20
2018-06-05T15:23:22.484Z,43.20
2018-06-05T15:25:50.644Z,43.30
2018-06-05T15:28:18.765Z,43.20
2018-06-05T15:30:47.083Z,43.40
2018-06-05T15:33:15.315Z,43.30
2018-06-05T15:35:43.448Z,43.30
2018-06-05T15:38:11.686Z,43.40
2018-06-05T15:40:39.925Z,43.50
2018-06-05T15:43:08.326Z,43.40
2018-06-05T15:45:36.504Z,43.30
2018-06-05T15:48:04.983Z,43.30
2018-06-05T15:50:33.255Z,42.60
2018-06-05T15:53:01.419Z,43.40
2018-06-05T15:55:29.869Z,44.50
2018-06-05T15:57:58.698Z,44.20
2018-06-05T16:00:26.890Z,44.30
2018-06-05T16:02:55.133Z,44.60
2018-06-05T16:05:23.405Z,44.70
2018-06-05T16:07:51.639Z,44.80
2018-06-05T16:10:19.944Z,44.80
2018-06-05T16:12:48.117Z,44.80
2018-06-05T16:15:16.389Z,45.20
2018-06-05T16:17:44.631Z,45.00
2018-06-05T16:20:12.906Z,44.60
2018-06-05T16:22:41.122Z,44.50
2018-06-05T16:25:09.334Z,44.80
2018-06-05T16:32:14.277Z,44.80
2018-06-05T16:34:42.497Z,44.80
2018-06-05T16:37:10.736Z,44.80
2018-06-05T16:39:38.979Z,44.70
2018-06-05T16:42:07.297Z,44.90
2018-06-05T16:44:35.601Z,45.10
2018-06-05T16:47:03.742Z,45.10
2018-06-05T16:49:32.508Z,45.40
2018-06-05T16:52:00.690Z,45.60
2018-06-05T16:54:28.891Z,45.70
2018-06-05T16:56:57.053Z,45.90
2018-06-05T16:59:25.315Z,46.10
2018-06-05T17:01:53.549Z,45.90
2018-06-05T17:06:50.045Z,46.20
2018-06-05T17:09:18.180Z,46.20
2018-06-05T17:11:46.724Z,46.30
2018-06-05T17:14:14.893Z,46.40
2018-06-05T17:16:43.098Z,45.30
2018-06-05T17:19:11.289Z,45.00
2018-06-05T17:21:39.892Z,44.80
2018-06-05T17:24:08.203Z,45.10
2018-06-05T17:26:36.456Z,45.20
2018-06-05T17:29:04.692Z,45.20
2018-06-05T17:31:32.874Z,45.30
2018-06-05T17:34:01.394Z,45.70
2018-06-05T17:36:29.554Z,45.60
2018-06-05T17:38:57.733Z,45.60
2018-06-05T17:41:25.969Z,45.70
2018-06-05T17:43:54.166Z,45.60
2018-06-05T17:46:22.338Z,45.60
2018-06-05T17:51:18.924Z,45.70
2018-06-05T17:53:47.151Z,45.70
2018-06-05T17:56:15.441Z,45.90
2018-06-05T17:58:43.641Z,46.60
2018-06-05T18:01:11.825Z,46.20
2018-06-05T18:03:40.024Z,47.50
2018-06-05T18:06:08.242Z,47.10
2018-06-05T18:08:36.384Z,46.90
2018-06-05T18:11:04.742Z,46.70
2018-06-05T18:13:33.014Z,45.40
2018-06-05T18:18:29.292Z,42.70
2018-06-05T18:20:57.579Z,39.60
2018-06-05T18:23:25.753Z,39.40
2018-06-05T18:25:54.138Z,40.40
2018-06-05T18:28:22.401Z,38.80
2018-06-05T18:30:50.917Z,38.50
2018-06-05T18:33:19.111Z,37.40
2018-06-05T18:35:47.356Z,38.90
2018-06-05T18:38:15.555Z,38.70
2018-06-05T18:40:44.438Z,39.00
2018-06-05T18:43:12.741Z,36.80
2018-06-05T18:45:41.596Z,36.60
2018-06-05T18:48:09.909Z,36.40
2018-06-05T18:50:38.387Z,38.60
2018-06-05T18:53:07.070Z,38.00
2018-06-05T18:55:36.103Z,37.30
2018-06-05T18:58:05.464Z,37.80
2018-06-05T19:00:33.854Z,37.20
2018-06-05T19:03:02.247Z,35.80
2018-06-05T19:05:30.777Z,36.70
2018-06-05T19:07:59.126Z,36.00
2018-06-05T19:12:55.726Z,35.60
2018-06-05T19:15:24.175Z,34.50
2018-06-05T19:17:52.453Z,33.20
2018-06-05T19:20:21.154Z,33.70
2018-06-05T19:22:49.426Z,33.30
2018-06-05T19:25:18.495Z,32.80
2018-06-05T19:27:46.948Z,34.20
2018-06-05T19:30:15.285Z,32.10
2018-06-05T19:32:43.825Z,33.20
2018-06-05T19:35:12.391Z,37.10
2018-06-05T19:37:40.632Z,35.70
2018-06-05T19:40:08.959Z,35.00
2018-06-05T19:42:37.443Z,34.80
2018-06-05T19:45:06.064Z,34.70
2018-06-05T19:47:35.161Z,35.20
2018-06-05T19:50:03.806Z,34.50
2018-06-05T19:52:34.536Z,34.90
2018-06-05T19:55:02.915Z,35.40
2018-06-05T19:57:31.140Z,33.40
2018-06-05T19:59:59.445Z,32.90
2018-06-05T20:02:27.725Z,33.20
2018-06-05T20:04:56.272Z,33.00
2018-06-05T20:07:24.562Z,32.30
2018-06-05T20:09:52.830Z,31.90
2018-06-05T20:12:21.461Z,32.10
2018-06-05T20:14:50.279Z,32.00
2018-06-05T20:17:19.015Z,32.30
2018-06-05T20:19:47.307Z,31.80
2018-06-05T20:22:15.803Z,29.50
2018-06-05T20:24:44.335Z,30.30
2018-06-05T20:27:13.219Z,30.20
2018-06-05T20:29:42.007Z,29.70
2018-06-05T20:32:10.250Z,30.00
2018-06-05T20:37:08.138Z,31.20
2018-06-05T20:39:36.563Z,30.10
2018-06-05T20:42:04.974Z,31.40
2018-06-05T20:44:33.387Z,30.50
2018-06-05T20:47:01.856Z,30.40
2018-06-05T20:49:30.276Z,30.60
2018-06-05T20:52:01.374Z,30.30
2018-06-05T20:54:29.735Z,30.60
2018-06-05T20:56:59.655Z,30.80
2018-06-05T20:59:28.625Z,31.00
2018-06-05T21:01:57.116Z,31.20
2018-06-05T21:04:31.847Z,31.30
2018-06-05T21:07:00.102Z,31.50
2018-06-05T21:09:28.597Z,33.10
2018-06-05T21:11:56.905Z,32.70
2018-06-05T21:14:25.532Z,33.80
2018-06-05T21:16:53.889Z,33.80
2018-06-05T21:19:22.232Z,33.90
2018-06-05T21:21:50.825Z,33.90
2018-06-05T21:24:19.006Z,33.60
2018-06-05T21:26:47.394Z,33.30
2018-06-05T21:29:15.513Z,34.00
2018-06-05T21:31:43.710Z,34.80
2018-06-05T21:34:11.864Z,35.10
2018-06-05T21:36:39.996Z,34.20
2018-06-05T21:39:08.959Z,36.20
2018-06-05T21:41:37.382Z,34.60
2018-06-05T21:44:05.611Z,37.10
2018-06-05T21:46:34.280Z,35.70
2018-06-05T21:49:02.542Z,36.80
2018-06-05T21:51:30.672Z,37.00
2018-06-05T21:53:58.965Z,36.60
2018-06-05T21:56:27.102Z,37.40
2018-06-05T21:58:55.498Z,37.60
2018-06-05T22:01:23.867Z,37.50
2018-06-05T22:03:52.053Z,38.00
2018-06-05T22:06:20.223Z,38.00
2018-06-05T22:08:48.389Z,37.80
2018-06-05T22:11:16.671Z,38.80
2018-06-05T22:13:44.809Z,38.50
2018-06-05T22:16:13.721Z,38.40
2018-06-05T22:18:41.875Z,38.40
2018-06-05T22:21:10.084Z,38.50
2018-06-05T22:23:38.322Z,38.80
2018-06-05T22:26:06.476Z,39.90
2018-06-05T22:28:34.801Z,39.40
2018-06-05T22:31:02.943Z,38.80
2018-06-05T22:33:31.241Z,39.10
2018-06-05T22:35:59.455Z,39.90
2018-06-05T22:38:28.676Z,40.80
2018-06-05T22:40:56.791Z,39.70
2018-06-05T22:43:25.020Z,39.90
2018-06-05T22:45:53.367Z,40.60
2018-06-05T22:48:21.499Z,40.90
2018-06-05T22:50:49.643Z,41.00
2018-06-05T22:53:17.859Z,40.40
2018-06-05T22:55:46.144Z,41.00
2018-06-05T22:58:14.341Z,41.30
2018-06-05T23:00:42.448Z,41.20
2018-06-05T23:03:10.777Z,42.20
2018-06-05T23:05:39.108Z,42.00
2018-06-05T23:08:07.228Z,41.00
2018-06-05T23:10:35.459Z,41.30
2018-06-05T23:13:03.617Z,41.40
2018-06-05T23:15:31.803Z,41.70
2018-06-05T23:18:00.147Z,41.40
2018-06-05T23:20:28.562Z,41.00
2018-06-05T23:22:56.852Z,41.10
2018-06-05T23:25:25.021Z,41.10
2018-06-05T23:27:53.254Z,41.50
2018-06-05T23:30:21.528Z,41.50
2018-06-05T23:32:49.771Z,41.40
2018-06-05T23:35:18.088Z,41.60
2018-06-05T23:37:46.305Z,41.90
2018-06-05T23:40:14.439Z,41.70
2018-06-05T23:42:42.570Z,41.50
2018-06-05T23:45:10.760Z,42.80
2018-06-05T23:47:39.052Z,42.00
2018-06-05T23:50:07.305Z,42.00
2018-06-05T23:52:35.490Z,43.10
2018-06-05T23:55:03.739Z,43.00
2018-06-05T23:57:31.947Z,42.90
